Time;durP1;ratioP1;P1;durP2;ratioP2;P2;SDS_P1;SDS_P2;PMS_P1;PMS_P2;Temp;Humidity;BMP_temperature;BMP_pressure;BME280_temperature;BME280_humidity;BME280_pressure;Samples;Min_cycle;Max_cycle;Signal;HPM_P1;HPM_P2
2022/10/21 00:00:15;;;;;;;54.27;28.17;;;;;;;;;;743998;186;920923;-66
2022/10/21 00:02:41;;;;;;;63.33;32.27;;;;;;;;;;746670;185;918381;-63
2022/10/21 00:05:07;;;;;;;51.13;28.00;;;;;;;;;;739823;187;919509;-62
2022/10/21 00:07:32;;;;;;;54.07;27.53;;;;;;;;;;746137;187;922219;-66
2022/10/21 00:09:58;;;;;;;53.03;27.40;;;;;;;;;;739822;186;917745;-66
2022/10/21 00:12:24;;;;;;;45.07;23.57;;;;;;;;;;743039;187;916593;-62
2022/10/21 00:14:50;;;;;;;49.30;24.63;;;;;;;;;;749737;187;922584;-61
2022/10/21 00:17:16;;;;;;;44.70;25.00;;;;;;;;;;726868;188;913922;-62
2022/10/21 00:19:42;;;;;;;41.03;23.97;;;;;;;;;;742057;186;915378;-66
2022/10/21 00:22:08;;;;;;;40.60;22.87;;;;;;;;;;743360;187;925889;-65
2022/10/21 00:24:33;;;;;;;43.05;22.00;;;;;;;;;;745467;186;918165;-66
2022/10/21 00:27:01;;;;;;;44.67;22.47;;;;;;;;;;746047;185;918261;-66
2022/10/21 00:29:25;;;;;;;40.07;22.97;;;;;;;;;;737840;187;918335;-66
2022/10/21 00:31:52;;;;;;;51.30;24.70;;;;;;;;;;741198;187;809585;-63
2022/10/21 00:34:18;;;;;;;38.20;22.10;;;;;;;;;;741586;187;883439;-63
2022/10/21 00:36:43;;;;;;;43.20;23.93;;;;;;;;;;740239;187;914638;-66
2022/10/21 00:39:09;;;;;;;44.47;22.13;;;;;;;;;;747938;185;912998;-62
2022/10/21 00:41:35;;;;;;;38.30;23.10;;;;;;;;;;747014;184;918703;-67
2022/10/21 00:44:02;;;;;;;37.00;21.57;;;;;;;;;;745239;186;917342;-62
2022/10/21 00:46:29;;;;;;;29.73;19.30;;;;;;;;;;742692;186;915370;-63
2022/10/21 00:48:54;;;;;;;45.00;22.87;;;;;;;;;;747675;186;920379;-61
2022/10/21 00:51:20;;;;;;;35.00;22.00;;;;;;;;;;743094;187;916102;-63
2022/10/21 00:53:46;;;;;;;37.27;22.10;;;;;;;;;;739834;187;919920;-66
2022/10/21 00:56:12;;;;;;;33.90;20.93;;;;;;;;;;746638;187;914228;-62
2022/10/21 00:58:38;;;;;;;38.93;22.37;;;;;;;;;;747379;184;920820;-66
2022/10/21 01:01:03;;;;;;;38.00;20.33;;;;;;;;;;744479;186;887120;-63
2022/10/21 01:03:29;;;;;;;34.67;19.20;;;;;;;;;;749900;184;916254;-61
2022/10/21 01:05:55;;;;;;;34.00;20.27;;;;;;;;;;746120;186;818074;-62
2022/10/21 01:08:21;;;;;;;33.70;19.17;;;;;;;;;;745181;184;919710;-66
2022/10/21 01:10:47;;;;;;;29.30;18.20;;;;;;;;;;742183;185;861724;-65
2022/10/21 01:13:13;;;;;;;32.30;18.00;;;;;;;;;;746574;184;919451;-63
2022/10/21 01:15:39;;;;;;;31.23;18.50;;;;;;;;;;741911;186;916190;-67
2022/10/21 01:18:10;;;;;;;28.67;16.13;;;;;;;;;;742659;183;918403;-63
2022/10/21 01:20:54;;;;;;;27.50;16.80;;;;;;;;;;746602;185;918313;-65
2022/10/21 01:23:37;;;;;;;25.50;16.07;;;;;;;;;;742603;186;916132;-61
2022/10/21 01:26:17;;;;;;;24.07;15.70;;;;;;;;;;749491;185;919490;-66
2022/10/21 01:28:58;;;;;;;26.80;15.57;;;;;;;;;;750042;185;915867;-67
2022/10/21 01:31:31;;;;;;;24.90;14.30;;;;;;;;;;746735;186;924202;-66
2022/10/21 01:34:12;;;;;;;23.27;15.40;;;;;;;;;;754133;186;920030;-63
2022/10/21 01:36:39;;;;;;;28.83;17.50;;;;;;;;;;746451;185;920440;-66
2022/10/21 01:39:20;;;;;;;22.40;15.13;;;;;;;;;;744743;182;918759;-63
2022/10/21 01:41:46;;;;;;;25.73;16.10;;;;;;;;;;740251;185;918149;-66
2022/10/21 01:44:12;;;;;;;22.00;13.03;;;;;;;;;;739757;187;918442;-63
2022/10/21 01:46:40;;;;;;;18.83;11.20;;;;;;;;;;747251;187;917294;-63
2022/10/21 01:49:06;;;;;;;13.75;9.18;;;;;;;;;;744164;187;917046;-67
2022/10/21 01:51:32;;;;;;;15.03;8.50;;;;;;;;;;742213;187;919607;-66
2022/10/21 01:53:58;;;;;;;11.00;8.02;;;;;;;;;;746343;187;918033;-64
2022/10/21 01:56:24;;;;;;;14.93;7.77;;;;;;;;;;746411;184;888018;-69
2022/10/21 01:58:50;;;;;;;11.47;8.27;;;;;;;;;;745973;184;918188;-62
2022/10/21 02:01:16;;;;;;;16.17;7.55;;;;;;;;;;744306;187;919084;-63
2022/10/21 02:03:41;;;;;;;14.50;9.90;;;;;;;;;;761014;182;815574;-66
2022/10/21 02:06:07;;;;;;;18.40;11.20;;;;;;;;;;743783;187;892171;-63
2022/10/21 02:08:33;;;;;;;17.48;10.30;;;;;;;;;;741708;184;933641;-63
2022/10/21 02:11:00;;;;;;;15.37;11.30;;;;;;;;;;749630;187;819373;-66
2022/10/21 02:13:25;;;;;;;20.33;11.33;;;;;;;;;;747670;186;912810;-67
2022/10/21 02:15:53;;;;;;;16.80;10.47;;;;;;;;;;746822;186;893088;-66
2022/10/21 02:18:18;;;;;;;16.27;10.50;;;;;;;;;;748770;187;885621;-66
2022/10/21 02:20:44;;;;;;;12.80;9.73;;;;;;;;;;747124;186;907620;-67
2022/10/21 02:23:11;;;;;;;15.67;9.93;;;;;;;;;;742635;185;913177;-63
2022/10/21 02:25:37;;;;;;;13.27;9.90;;;;;;;;;;742447;187;1013981;-63
2022/10/21 02:28:03;;;;;;;12.13;9.43;;;;;;;;;;750682;184;919199;-62
2022/10/21 02:30:29;;;;;;;14.63;10.83;;;;;;;;;;741783;184;913190;-63
2022/10/21 02:32:56;;;;;;;13.57;9.23;;;;;;;;;;744175;184;914864;-63
2022/10/21 02:35:28;;;;;;;17.27;10.37;;;;;;;;;;748731;185;912421;-63
2022/10/21 02:37:55;;;;;;;11.90;9.60;;;;;;;;;;744108;186;910021;-62
2022/10/21 02:40:22;;;;;;;16.50;10.27;;;;;;;;;;737649;184;920049;-63
2022/10/21 02:42:50;;;;;;;14.50;10.82;;;;;;;;;;742251;186;915383;-63
2022/10/21 02:45:16;;;;;;;14.53;10.63;;;;;;;;;;746486;187;888541;-63
2022/10/21 02:47:42;;;;;;;14.20;10.10;;;;;;;;;;742717;187;843610;-63
2022/10/21 02:50:08;;;;;;;15.50;10.93;;;;;;;;;;743180;185;914392;-63
2022/10/21 02:52:34;;;;;;;16.77;11.30;;;;;;;;;;747124;186;916666;-66
2022/10/21 02:54:59;;;;;;;11.63;8.73;;;;;;;;;;744563;187;921412;-68
2022/10/21 02:57:25;;;;;;;12.13;7.93;;;;;;;;;;737481;186;933056;-67
2022/10/21 02:59:51;;;;;;;15.20;9.00;;;;;;;;;;744380;186;810874;-66
2022/10/21 03:02:17;;;;;;;11.30;8.10;;;;;;;;;;736062;188;918999;-63
2022/10/21 03:04:43;;;;;;;9.30;8.10;;;;;;;;;;746305;186;918957;-62
2022/10/21 03:07:09;;;;;;;12.85;9.35;;;;;;;;;;745681;187;919341;-63
2022/10/21 03:09:34;;;;;;;14.67;7.80;;;;;;;;;;750224;184;900527;-68
2022/10/21 03:12:00;;;;;;;8.53;7.63;;;;;;;;;;736326;187;944079;-67
2022/10/21 03:14:26;;;;;;;11.97;8.83;;;;;;;;;;742252;187;872357;-63
2022/10/21 03:16:52;;;;;;;10.60;7.50;;;;;;;;;;747743;186;914484;-63
2022/10/21 03:19:18;;;;;;;11.87;8.40;;;;;;;;;;741570;186;916188;-68
2022/10/21 03:21:44;;;;;;;15.80;9.90;;;;;;;;;;743349;187;896195;-68
2022/10/21 03:24:10;;;;;;;25.02;13.23;;;;;;;;;;750807;185;918714;-67
2022/10/21 03:26:35;;;;;;;26.17;14.87;;;;;;;;;;736966;186;917691;-67
2022/10/21 03:29:01;;;;;;;22.73;14.67;;;;;;;;;;743107;187;919778;-63
2022/10/21 03:31:27;;;;;;;31.67;15.10;;;;;;;;;;743065;185;918851;-66
2022/10/21 03:33:53;;;;;;;24.87;13.83;;;;;;;;;;746304;187;921967;-63
2022/10/21 03:36:19;;;;;;;22.07;13.67;;;;;;;;;;742839;187;918663;-62
2022/10/21 03:38:45;;;;;;;25.12;12.10;;;;;;;;;;743557;187;820480;-63
2022/10/21 03:41:10;;;;;;;16.60;11.07;;;;;;;;;;748558;187;809049;-63
2022/10/21 03:43:36;;;;;;;10.97;8.33;;;;;;;;;;742558;185;912101;-67
2022/10/21 03:46:02;;;;;;;10.97;9.03;;;;;;;;;;744114;186;885377;-67
2022/10/21 03:48:28;;;;;;;17.37;8.47;;;;;;;;;;747636;187;919475;-61
2022/10/21 03:50:54;;;;;;;9.33;6.67;;;;;;;;;;743962;187;911709;-61
2022/10/21 03:53:20;;;;;;;11.53;7.90;;;;;;;;;;742752;187;919043;-60
2022/10/21 03:55:46;;;;;;;13.10;8.33;;;;;;;;;;742585;186;914788;-63
2022/10/21 03:58:11;;;;;;;14.33;8.20;;;;;;;;;;746376;186;811248;-67
2022/10/21 04:00:37;;;;;;;9.70;7.60;;;;;;;;;;741213;185;914452;-67
2022/10/21 04:03:03;;;;;;;9.07;7.65;;;;;;;;;;741235;186;899359;-63
2022/10/21 04:05:29;;;;;;;14.37;8.80;;;;;;;;;;749835;187;874445;-67
2022/10/21 04:07:55;;;;;;;12.10;7.90;;;;;;;;;;742832;187;919437;-64
2022/10/21 04:10:21;;;;;;;12.60;7.90;;;;;;;;;;743384;187;917944;-64
2022/10/21 04:12:46;;;;;;;11.27;7.80;;;;;;;;;;748211;184;915364;-65
2022/10/21 04:15:13;;;;;;;11.50;7.20;;;;;;;;;;744245;186;919470;-67
2022/10/21 04:17:38;;;;;;;10.47;7.57;;;;;;;;;;742317;187;916281;-68
2022/10/21 04:20:05;;;;;;;12.40;8.50;;;;;;;;;;744064;186;914201;-63
2022/10/21 04:22:31;;;;;;;9.60;7.53;;;;;;;;;;744415;185;936744;-62
2022/10/21 04:24:57;;;;;;;11.48;7.95;;;;;;;;;;741512;186;919387;-62
2022/10/21 04:27:23;;;;;;;13.77;8.03;;;;;;;;;;741932;186;918391;-67
2022/10/21 04:29:49;;;;;;;9.17;6.83;;;;;;;;;;749293;185;919088;-67
2022/10/21 04:32:14;;;;;;;9.00;7.63;;;;;;;;;;744422;184;916749;-63
2022/10/21 04:34:40;;;;;;;11.20;7.77;;;;;;;;;;743524;186;914463;-66
2022/10/21 04:37:06;;;;;;;11.53;7.20;;;;;;;;;;750655;185;918178;-66
2022/10/21 04:39:32;;;;;;;11.90;7.63;;;;;;;;;;739334;185;914395;-61
2022/10/21 04:41:58;;;;;;;9.57;7.87;;;;;;;;;;739919;185;918884;-60
2022/10/21 04:44:24;;;;;;;14.15;8.95;;;;;;;;;;746304;187;918429;-68
2022/10/21 04:46:49;;;;;;;10.00;7.50;;;;;;;;;;743822;185;917442;-68
2022/10/21 04:49:15;;;;;;;11.50;8.00;;;;;;;;;;747274;185;818658;-68
2022/10/21 04:51:41;;;;;;;12.17;7.37;;;;;;;;;;748711;186;624866;-62
2022/10/21 04:54:07;;;;;;;11.00;7.93;;;;;;;;;;752576;186;618730;-62
2022/10/21 04:56:33;;;;;;;12.73;7.63;;;;;;;;;;742837;186;915746;-68
2022/10/21 04:58:59;;;;;;;8.67;6.47;;;;;;;;;;747728;184;626773;-67
2022/10/21 05:01:24;;;;;;;9.97;7.70;;;;;;;;;;750091;187;626691;-68
2022/10/21 05:03:50;;;;;;;13.17;7.10;;;;;;;;;;744931;186;819249;-62
2022/10/21 05:06:16;;;;;;;10.60;7.37;;;;;;;;;;743350;187;777786;-62
2022/10/21 05:08:42;;;;;;;10.13;7.10;;;;;;;;;;749409;185;917876;-68
2022/10/21 05:11:08;;;;;;;12.50;7.57;;;;;;;;;;744811;187;816267;-68
2022/10/21 05:13:34;;;;;;;10.50;7.13;;;;;;;;;;741828;187;917847;-62
2022/10/21 05:15:59;;;;;;;8.07;6.33;;;;;;;;;;742775;185;827683;-67
2022/10/21 05:18:25;;;;;;;9.73;5.80;;;;;;;;;;748944;187;918956;-67
2022/10/21 05:20:51;;;;;;;12.40;6.83;;;;;;;;;;743048;187;919184;-62
2022/10/21 05:23:17;;;;;;;9.67;7.27;;;;;;;;;;743643;187;921810;-67
2022/10/21 05:25:43;;;;;;;7.93;7.13;;;;;;;;;;746589;186;918728;-68
2022/10/21 05:28:09;;;;;;;12.33;7.03;;;;;;;;;;741062;184;918335;-62
2022/10/21 05:30:35;;;;;;;9.30;7.13;;;;;;;;;;742540;186;869416;-62
2022/10/21 05:33:00;;;;;;;8.97;7.00;;;;;;;;;;746267;187;920797;-60
2022/10/21 05:35:26;;;;;;;10.00;6.80;;;;;;;;;;741828;186;919899;-61
2022/10/21 05:37:52;;;;;;;10.20;8.03;;;;;;;;;;743573;187;843368;-61
2022/10/21 05:40:18;;;;;;;10.30;7.67;;;;;;;;;;742592;186;917514;-65
2022/10/21 05:42:44;;;;;;;9.90;7.20;;;;;;;;;;744006;186;814609;-61
2022/10/21 05:45:10;;;;;;;10.93;7.77;;;;;;;;;;742535;187;919257;-67
2022/10/21 05:47:36;;;;;;;10.27;7.03;;;;;;;;;;744812;186;919067;-60
2022/10/21 05:50:02;;;;;;;9.13;6.07;;;;;;;;;;750089;185;912665;-60
2022/10/21 05:52:28;;;;;;;10.53;6.33;;;;;;;;;;741761;186;919008;-60
2022/10/21 05:54:53;;;;;;;10.43;7.30;;;;;;;;;;742505;187;918086;-66
2022/10/21 05:57:19;;;;;;;9.43;6.95;;;;;;;;;;747700;186;916320;-61
2022/10/21 05:59:45;;;;;;;8.43;6.47;;;;;;;;;;745885;185;919499;-66
2022/10/21 06:02:11;;;;;;;8.97;6.77;;;;;;;;;;744486;186;907325;-60
2022/10/21 06:04:37;;;;;;;8.80;6.03;;;;;;;;;;748143;184;853110;-61
2022/10/21 06:07:03;;;;;;;6.60;5.80;;;;;;;;;;743422;187;917617;-61
2022/10/21 06:09:28;;;;;;;9.83;6.13;;;;;;;;;;742150;186;918648;-66
2022/10/21 06:11:56;;;;;;;11.50;6.10;;;;;;;;;;741445;186;921976;-67
2022/10/21 06:14:20;;;;;;;12.57;5.50;;;;;;;;;;752438;186;913396;-59
2022/10/21 06:16:46;;;;;;;8.30;6.17;;;;;;;;;;744623;186;918189;-61
2022/10/21 06:19:12;;;;;;;10.13;5.37;;;;;;;;;;743796;185;918941;-67
2022/10/21 06:21:38;;;;;;;8.30;5.93;;;;;;;;;;746517;187;847493;-66
2022/10/21 06:24:03;;;;;;;6.60;5.70;;;;;;;;;;745529;187;941973;-61
2022/10/21 06:26:29;;;;;;;8.25;5.87;;;;;;;;;;741758;187;917941;-60
2022/10/21 06:28:55;;;;;;;7.17;4.97;;;;;;;;;;747586;187;812474;-67
2022/10/21 06:31:21;;;;;;;6.87;5.50;;;;;;;;;;742752;186;915209;-59
2022/10/21 06:33:47;;;;;;;7.43;5.57;;;;;;;;;;744491;187;908538;-68
2022/10/21 06:36:13;;;;;;;8.87;6.17;;;;;;;;;;743156;187;916546;-61
2022/10/21 06:38:39;;;;;;;11.50;5.63;;;;;;;;;;744028;185;817516;-66
2022/10/21 06:41:04;;;;;;;10.60;5.70;;;;;;;;;;744046;186;815147;-62
2022/10/21 06:43:30;;;;;;;7.23;4.93;;;;;;;;;;742192;186;920209;-67
2022/10/21 06:45:59;;;;;;;8.60;6.90;;;;;;;;;;750476;184;900168;-66
2022/10/21 06:48:25;;;;;;;8.60;5.35;;;;;;;;;;744263;186;909324;-61
2022/10/21 06:50:51;;;;;;;15.43;6.00;;;;;;;;;;742466;186;915591;-61
2022/10/21 06:53:17;;;;;;;7.17;5.17;;;;;;;;;;747538;187;754052;-61
2022/10/21 06:55:43;;;;;;;9.40;6.03;;;;;;;;;;741972;187;919038;-67
2022/10/21 06:58:09;;;;;;;10.63;5.50;;;;;;;;;;742945;186;915622;-68
2022/10/21 07:00:34;;;;;;;9.80;5.10;;;;;;;;;;745012;185;919397;-61
2022/10/21 07:03:00;;;;;;;6.83;5.40;;;;;;;;;;748969;186;918461;-68
2022/10/21 07:05:26;;;;;;;11.07;5.93;;;;;;;;;;744552;186;815775;-59
2022/10/21 07:07:52;;;;;;;8.13;5.10;;;;;;;;;;742279;185;919293;-61
2022/10/21 07:10:18;;;;;;;5.40;4.00;;;;;;;;;;748350;187;904258;-66
2022/10/21 07:12:45;;;;;;;6.47;4.60;;;;;;;;;;743504;185;1738820;-60
2022/10/21 07:15:10;;;;;;;7.97;4.22;;;;;;;;;;745194;185;933347;-60
2022/10/21 07:17:36;;;;;;;11.38;5.00;;;;;;;;;;747284;186;910947;-61
2022/10/21 07:20:01;;;;;;;6.37;4.10;;;;;;;;;;742167;187;918771;-61
2022/10/21 07:22:27;;;;;;;5.13;4.00;;;;;;;;;;741554;186;918859;-67
2022/10/21 07:24:53;;;;;;;7.00;4.27;;;;;;;;;;744739;185;917814;-67
2022/10/21 07:27:19;;;;;;;7.43;4.40;;;;;;;;;;744970;186;818781;-67
2022/10/21 07:29:45;;;;;;;5.43;4.80;;;;;;;;;;741157;186;917158;-68
2022/10/21 07:32:11;;;;;;;7.77;4.23;;;;;;;;;;741128;187;919253;-67
2022/10/21 07:34:36;;;;;;;6.17;3.93;;;;;;;;;;747753;187;869818;-67
2022/10/21 07:37:02;;;;;;;7.90;3.70;;;;;;;;;;745182;187;751915;-67
2022/10/21 07:39:28;;;;;;;5.97;4.00;;;;;;;;;;741795;186;914601;-67
2022/10/21 07:41:54;;;;;;;9.15;4.00;;;;;;;;;;747606;187;916796;-68
2022/10/21 07:44:20;;;;;;;4.43;3.77;;;;;;;;;;742717;186;881009;-68
2022/10/21 07:46:46;;;;;;;8.20;4.57;;;;;;;;;;740431;187;919312;-61
2022/10/21 07:49:12;;;;;;;4.15;3.40;;;;;;;;;;744599;187;819860;-67
2022/10/21 07:51:38;;;;;;;6.27;4.43;;;;;;;;;;743482;185;919972;-68
2022/10/21 07:54:04;;;;;;;8.63;4.00;;;;;;;;;;741127;186;918153;-59
2022/10/21 07:56:29;;;;;;;6.47;3.60;;;;;;;;;;742848;187;921238;-67
2022/10/21 07:58:55;;;;;;;5.90;3.83;;;;;;;;;;749845;186;917323;-67
2022/10/21 08:01:21;;;;;;;5.65;3.62;;;;;;;;;;744054;186;882692;-60
2022/10/21 08:03:47;;;;;;;5.73;3.83;;;;;;;;;;741302;186;941536;-59
2022/10/21 08:06:13;;;;;;;6.00;3.80;;;;;;;;;;747058;187;899442;-60
2022/10/21 08:08:39;;;;;;;13.70;4.50;;;;;;;;;;747679;185;818968;-68
2022/10/21 08:11:04;;;;;;;6.40;3.60;;;;;;;;;;746985;186;645864;-60
2022/10/21 08:13:30;;;;;;;4.50;4.00;;;;;;;;;;750786;184;623600;-67
2022/10/21 08:15:56;;;;;;;5.23;3.73;;;;;;;;;;746416;185;915921;-67
2022/10/21 08:18:22;;;;;;;8.10;4.30;;;;;;;;;;743600;186;919587;-59
2022/10/21 08:20:48;;;;;;;5.67;3.47;;;;;;;;;;744503;187;918764;-66
2022/10/21 08:23:14;;;;;;;6.83;4.10;;;;;;;;;;750181;187;914573;-60
2022/10/21 08:25:40;;;;;;;6.23;3.80;;;;;;;;;;744870;187;821869;-69
2022/10/21 08:28:05;;;;;;;6.60;4.00;;;;;;;;;;744650;186;919192;-67
2022/10/21 08:30:31;;;;;;;5.90;3.77;;;;;;;;;;750740;186;816601;-60
2022/10/21 08:32:58;;;;;;;8.03;3.60;;;;;;;;;;744748;184;918324;-60
2022/10/21 08:35:24;;;;;;;7.28;4.40;;;;;;;;;;741643;187;917750;-61
2022/10/21 08:37:50;;;;;;;7.93;3.97;;;;;;;;;;747348;187;823429;-59
2022/10/21 08:40:16;;;;;;;6.50;3.70;;;;;;;;;;742030;186;920368;-59
2022/10/21 08:42:43;;;;;;;11.53;4.30;;;;;;;;;;743066;186;915580;-67
2022/10/21 08:45:08;;;;;;;6.77;4.47;;;;;;;;;;743222;186;919190;-67
2022/10/21 08:47:35;;;;;;;5.43;3.80;;;;;;;;;;749462;187;919209;-60
2022/10/21 08:50:01;;;;;;;6.30;3.83;;;;;;;;;;744692;187;916817;-59
2022/10/21 08:52:26;;;;;;;7.27;4.63;;;;;;;;;;742802;185;918499;-60
2022/10/21 08:54:52;;;;;;;5.70;3.90;;;;;;;;;;749205;187;918737;-60
2022/10/21 08:57:18;;;;;;;6.00;4.43;;;;;;;;;;741802;186;918555;-68
2022/10/21 08:59:44;;;;;;;6.03;4.40;;;;;;;;;;741345;186;919337;-67
2022/10/21 09:02:26;;;;;;;5.97;3.97;;;;;;;;;;745540;187;918380;-67
2022/10/21 09:04:55;;;;;;;4.73;3.90;;;;;;;;;;754507;184;917665;-67
2022/10/21 09:07:21;;;;;;;4.12;3.53;;;;;;;;;;744318;186;921603;-68
2022/10/21 09:09:47;;;;;;;5.37;3.90;;;;;;;;;;741164;185;920666;-67
2022/10/21 09:12:16;;;;;;;5.20;3.87;;;;;;;;;;741102;187;921868;-67
2022/10/21 09:14:43;;;;;;;5.63;4.20;;;;;;;;;;748294;187;819805;-61
2022/10/21 09:17:17;;;;;;;7.00;4.23;;;;;;;;;;739200;186;819753;-60
2022/10/21 09:19:42;;;;;;;5.20;4.00;;;;;;;;;;740484;187;920615;-59
2022/10/21 09:22:11;;;;;;;6.50;4.00;;;;;;;;;;742412;186;917354;-67
2022/10/21 09:24:40;;;;;;;8.23;4.30;;;;;;;;;;751655;185;629319;-60
2022/10/21 09:27:05;;;;;;;7.47;4.00;;;;;;;;;;748967;187;818035;-59
2022/10/21 09:29:31;;;;;;;9.50;4.50;;;;;;;;;;742468;185;815556;-68
2022/10/21 09:32:13;;;;;;;8.30;4.62;;;;;;;;;;742491;185;920651;-67
2022/10/21 09:34:43;;;;;;;7.60;4.47;;;;;;;;;;753656;183;638486;-66
2022/10/21 09:37:11;;;;;;;5.93;4.03;;;;;;;;;;748157;186;816992;-67
2022/10/21 09:39:40;;;;;;;5.83;4.20;;;;;;;;;;745948;186;917875;-70
2022/10/21 09:42:04;;;;;;;8.37;4.90;;;;;;;;;;743284;186;916694;-67
2022/10/21 09:44:30;;;;;;;6.50;4.63;;;;;;;;;;750145;187;633698;-68
2022/10/21 09:46:56;;;;;;;5.23;4.27;;;;;;;;;;745952;187;926169;-60
2022/10/21 09:49:28;;;;;;;5.40;4.10;;;;;;;;;;744760;187;919868;-60
2022/10/21 09:51:54;;;;;;;5.93;4.07;;;;;;;;;;746092;187;916806;-59
2022/10/21 09:54:19;;;;;;;6.33;4.47;;;;;;;;;;750795;187;615321;-68
2022/10/21 09:56:45;;;;;;;6.63;4.87;;;;;;;;;;740928;187;918180;-67
2022/10/21 09:59:12;;;;;;;7.87;4.33;;;;;;;;;;743201;187;918623;-61
2022/10/21 10:01:38;;;;;;;6.20;4.07;;;;;;;;;;747451;185;930279;-69
2022/10/21 10:04:09;;;;;;;6.00;3.83;;;;;;;;;;741416;187;923710;-60
2022/10/21 10:06:35;;;;;;;12.10;4.90;;;;;;;;;;743400;187;916950;-59
2022/10/21 10:09:05;;;;;;;6.07;4.00;;;;;;;;;;742884;186;822009;-68
2022/10/21 10:11:31;;;;;;;7.20;4.50;;;;;;;;;;746497;185;917832;-59
2022/10/21 10:13:57;;;;;;;7.10;4.40;;;;;;;;;;744871;187;919269;-61
2022/10/21 10:16:23;;;;;;;8.27;4.37;;;;;;;;;;744032;187;918348;-60
2022/10/21 10:18:48;;;;;;;6.70;5.27;;;;;;;;;;749700;186;812938;-60
2022/10/21 10:21:15;;;;;;;5.80;4.07;;;;;;;;;;746784;184;916413;-68
2022/10/21 10:23:41;;;;;;;5.77;4.20;;;;;;;;;;740249;187;918221;-70
2022/10/21 10:26:07;;;;;;;4.40;3.73;;;;;;;;;;742266;187;902467;-68
2022/10/21 10:28:33;;;;;;;7.93;4.93;;;;;;;;;;747898;186;816302;-66
2022/10/21 10:30:59;;;;;;;9.50;4.97;;;;;;;;;;742981;187;918996;-68
2022/10/21 10:33:25;;;;;;;6.20;4.43;;;;;;;;;;744798;186;873814;-67
2022/10/21 10:35:53;;;;;;;5.40;4.63;;;;;;;;;;748968;186;773215;-68
2022/10/21 10:38:21;;;;;;;10.07;4.95;;;;;;;;;;749487;185;918684;-60
2022/10/21 10:40:47;;;;;;;9.10;4.60;;;;;;;;;;743647;184;919192;-61
2022/10/21 10:43:12;;;;;;;9.23;4.67;;;;;;;;;;743087;185;917629;-67
2022/10/21 10:45:38;;;;;;;7.57;5.30;;;;;;;;;;746751;187;918900;-60
2022/10/21 10:48:05;;;;;;;6.87;4.60;;;;;;;;;;742179;185;918217;-61
2022/10/21 10:50:36;;;;;;;7.43;4.07;;;;;;;;;;743123;186;919981;-66
2022/10/21 10:53:07;;;;;;;8.00;4.53;;;;;;;;;;747743;186;921706;-60
2022/10/21 10:55:33;;;;;;;5.33;3.90;;;;;;;;;;750315;184;911962;-69
2022/10/21 10:57:59;;;;;;;9.73;5.73;;;;;;;;;;741985;186;919155;-72
2022/10/21 11:00:26;;;;;;;11.50;4.40;;;;;;;;;;742977;184;917187;-69
2022/10/21 11:03:03;;;;;;;4.67;4.13;;;;;;;;;;746309;187;814136;-61
2022/10/21 11:05:35;;;;;;;7.83;4.70;;;;;;;;;;744393;186;820348;-70
2022/10/21 11:07:59;;;;;;;5.60;3.93;;;;;;;;;;743739;185;818379;-70
2022/10/21 11:10:25;;;;;;;8.20;4.13;;;;;;;;;;741999;187;915748;-73
2022/10/21 11:12:51;;;;;;;8.33;4.60;;;;;;;;;;747851;187;816992;-71
2022/10/21 11:15:17;;;;;;;5.57;3.90;;;;;;;;;;744847;187;716687;-68
2022/10/21 11:17:44;;;;;;;5.70;4.10;;;;;;;;;;743195;187;917063;-61
2022/10/21 11:20:20;;;;;;;7.70;4.70;;;;;;;;;;742748;186;915711;-61
2022/10/21 11:22:50;;;;;;;6.37;4.17;;;;;;;;;;746860;187;763791;-60
2022/10/21 11:25:16;;;;;;;6.17;4.70;;;;;;;;;;743226;187;918763;-60
2022/10/21 11:27:42;;;;;;;7.37;3.90;;;;;;;;;;743729;187;859352;-61
2022/10/21 11:30:10;;;;;;;7.50;5.43;;;;;;;;;;741407;185;918752;-61
2022/10/21 11:32:37;;;;;;;9.95;6.20;;;;;;;;;;746885;187;918788;-67
2022/10/21 11:35:14;;;;;;;6.90;4.60;;;;;;;;;;744573;186;922272;-70
2022/10/21 11:37:43;;;;;;;8.70;4.77;;;;;;;;;;743977;187;910400;-71
2022/10/21 11:40:12;;;;;;;7.33;5.60;;;;;;;;;;743280;187;847732;-70
2022/10/21 11:42:39;;;;;;;8.83;4.43;;;;;;;;;;745215;187;918543;-72
2022/10/21 11:45:05;;;;;;;9.30;4.57;;;;;;;;;;747525;185;815952;-63
2022/10/21 11:47:31;;;;;;;6.83;4.20;;;;;;;;;;746643;186;921752;-70
2022/10/21 11:50:02;;;;;;;7.27;4.47;;;;;;;;;;742894;184;919974;-73
2022/10/21 11:52:28;;;;;;;6.23;4.50;;;;;;;;;;750729;187;817939;-70
2022/10/21 11:54:54;;;;;;;7.93;4.97;;;;;;;;;;746737;186;915939;-71
2022/10/21 11:57:35;;;;;;;8.10;4.50;;;;;;;;;;744574;184;824999;-63
2022/10/21 12:00:04;;;;;;;13.23;6.50;;;;;;;;;;741601;185;917738;-61
2022/10/21 12:02:30;;;;;;;6.67;4.60;;;;;;;;;;741994;186;942118;-70
2022/10/21 12:05:00;;;;;;;8.37;4.70;;;;;;;;;;751628;185;816675;-72
2022/10/21 12:07:42;;;;;;;8.70;4.30;;;;;;;;;;742885;186;891682;-62
2022/10/21 12:10:10;;;;;;;7.80;5.17;;;;;;;;;;743207;184;917399;-69
2022/10/21 12:12:38;;;;;;;5.83;3.83;;;;;;;;;;746537;187;784399;-68
2022/10/21 12:15:04;;;;;;;5.43;4.33;;;;;;;;;;745856;187;916667;-59
2022/10/21 12:17:30;;;;;;;6.40;5.37;;;;;;;;;;740782;186;873822;-60
2022/10/21 12:19:57;;;;;;;5.60;4.13;;;;;;;;;;741540;187;919945;-61
2022/10/21 12:22:23;;;;;;;6.10;3.90;;;;;;;;;;744564;187;640028;-66
2022/10/21 12:24:49;;;;;;;6.90;5.03;;;;;;;;;;747202;187;919516;-61
2022/10/21 12:27:18;;;;;;;12.50;4.25;;;;;;;;;;743066;186;921816;-62
2022/10/21 12:29:50;;;;;;;7.67;4.87;;;;;;;;;;741987;187;918056;-62
2022/10/21 12:32:22;;;;;;;10.83;4.53;;;;;;;;;;741413;187;919141;-68
2022/10/21 12:34:47;;;;;;;9.20;5.40;;;;;;;;;;748438;186;817888;-71
2022/10/21 12:37:19;;;;;;;9.50;4.40;;;;;;;;;;741785;185;940524;-70
2022/10/21 12:39:45;;;;;;;8.17;4.53;;;;;;;;;;746522;187;820033;-69
2022/10/21 12:42:11;;;;;;;6.93;4.90;;;;;;;;;;742246;187;916934;-68
2022/10/21 12:44:37;;;;;;;7.50;4.50;;;;;;;;;;748034;186;816062;-61
2022/10/21 12:47:03;;;;;;;7.80;5.10;;;;;;;;;;743695;186;818583;-61
2022/10/21 12:49:32;;;;;;;7.13;5.30;;;;;;;;;;741162;187;889369;-67
2022/10/21 12:51:57;;;;;;;8.33;5.07;;;;;;;;;;749709;187;812010;-71
2022/10/21 12:54:23;;;;;;;8.20;5.23;;;;;;;;;;738215;187;922430;-70
2022/10/21 12:56:49;;;;;;;7.93;5.13;;;;;;;;;;742283;185;914236;-70
2022/10/21 12:59:31;;;;;;;9.23;5.33;;;;;;;;;;750801;187;794806;-61
2022/10/21 13:02:02;;;;;;;10.03;6.10;;;;;;;;;;754459;186;812247;-62
2022/10/21 13:04:46;;;;;;;13.33;6.70;;;;;;;;;;751892;187;911858;-70
2022/10/21 13:07:28;;;;;;;7.53;4.73;;;;;;;;;;754946;184;941379;-61
2022/10/21 13:10:09;;;;;;;6.80;5.00;;;;;;;;;;756099;184;717520;-70
2022/10/21 13:12:35;;;;;;;7.17;5.37;;;;;;;;;;754473;185;1128777;-68
2022/10/21 13:15:04;;;;;;;9.93;6.00;;;;;;;;;;743336;185;1020762;-71
2022/10/21 13:17:28;;;;;;;8.87;6.47;;;;;;;;;;742049;184;865736;-60
2022/10/21 13:19:55;;;;;;;8.77;5.60;;;;;;;;;;749750;184;918786;-68
2022/10/21 13:22:22;;;;;;;10.80;6.30;;;;;;;;;;742774;187;1019745;-59
2022/10/21 13:24:48;;;;;;;10.30;5.73;;;;;;;;;;745454;185;813590;-60
2022/10/21 13:27:19;;;;;;;7.90;4.60;;;;;;;;;;746083;186;629585;-61
2022/10/21 13:29:45;;;;;;;7.20;4.90;;;;;;;;;;753120;185;638527;-60
2022/10/21 13:32:11;;;;;;;6.40;4.50;;;;;;;;;;742938;187;918677;-68
2022/10/21 13:34:37;;;;;;;9.57;5.33;;;;;;;;;;739164;185;918638;-60
2022/10/21 13:37:03;;;;;;;6.67;5.07;;;;;;;;;;748433;184;918122;-61
2022/10/21 13:39:30;;;;;;;7.33;5.87;;;;;;;;;;743534;186;919800;-61
2022/10/21 13:41:55;;;;;;;10.57;5.97;;;;;;;;;;742689;187;917693;-68
2022/10/21 13:44:22;;;;;;;7.00;5.25;;;;;;;;;;742832;187;951282;-68
2022/10/21 13:46:47;;;;;;;7.50;5.70;;;;;;;;;;743937;188;949477;-60
2022/10/21 13:49:19;;;;;;;6.82;5.20;;;;;;;;;;739105;186;917692;-60
2022/10/21 13:51:45;;;;;;;7.33;5.23;;;;;;;;;;741319;187;914443;-67
2022/10/21 13:54:11;;;;;;;7.75;5.60;;;;;;;;;;748380;186;916988;-69
2022/10/21 13:56:37;;;;;;;6.47;5.77;;;;;;;;;;743865;186;894994;-69
2022/10/21 13:59:03;;;;;;;7.60;6.22;;;;;;;;;;741760;186;904515;-69
2022/10/21 14:01:29;;;;;;;7.90;4.62;;;;;;;;;;741660;185;924281;-67
2022/10/21 14:03:55;;;;;;;7.53;5.07;;;;;;;;;;740246;185;919403;-61
2022/10/21 14:06:22;;;;;;;6.90;5.20;;;;;;;;;;745306;186;919423;-61
2022/10/21 14:08:47;;;;;;;9.37;5.17;;;;;;;;;;743137;185;802753;-59
2022/10/21 14:11:14;;;;;;;8.77;5.57;;;;;;;;;;749437;186;900036;-61
2022/10/21 14:13:40;;;;;;;9.03;5.67;;;;;;;;;;744393;184;917037;-68
2022/10/21 14:16:06;;;;;;;10.03;5.87;;;;;;;;;;743072;186;910767;-68
2022/10/21 14:18:33;;;;;;;12.43;5.90;;;;;;;;;;747936;186;913740;-69